Flight Track Log - Related Links

Times and Time Zones

All times are in EDT time to prevent confusion due to time zone crossing. See the KAP5 flight status page for this flight to view local times or setup timezone preferences in your user account.


Time Position Orientation Groundspeed Altitude Reporting Facility
EDT Latitude Longitude Course Direction KTS MPH feet Rate Location/Type
Mon 02:55:16 PM 42.7278 -73.8081 122° Southeast 97 112 800  Level Boston Center
Mon 02:56:28 PM 42.7136 -73.7767 122° Southeast 118 136 1,300 455 Climbing Boston Center
Mon 02:57:28 PM 42.7308 -73.7317 62° Northeast 129 148 1,800 493 Climbing Boston Center
Mon 02:58:42 PM 42.7500 -73.6786 64° Northeast 133 153 2,400 512 Climbing Boston Center
Mon 02:59:37 PM 42.7608 -73.6364 71° East 130 150 2,900 584 Climbing Boston Center
Mon 03:00:35 PM 42.7656 -73.5883 82° East 134 154 3,500 574 Climbing Boston Center
Mon 03:01:32 PM 42.7681 -73.5375 86° East 141 162 4,000 458 Climbing Boston Center
Mon 03:02:33 PM 42.7728 -73.4808 84° East 148 170 4,400 556 Climbing Boston Center
Mon 03:04:03 PM 42.7778 -73.3989 85° East 159 183 5,400 604 Climbing Boston Center
Mon 03:05:02 PM 42.7719 -73.3367 97° East 154 177 5,900 555 Climbing Boston Center
Mon 03:06:02 PM 42.7661 -73.2914 100° East 149 171 6,500 545 Climbing Boston Center
Mon 03:07:03 PM 42.7561 -73.2289 102° East 139 160 7,000 298 Climbing Boston Center
Mon 03:08:03 PM 42.7419 -73.1781 111° Southeast 152 175 7,100  Climbing Boston Center
Mon 03:09:04 PM 42.7319 -73.0986 100° East 173 199 7,000 -50 Descending Boston Center
Mon 03:10:04 PM 42.7219 -73.0392 103° East 181 208 7,000  Level Boston Center
Mon 03:11:02 PM 42.7139 -72.9656 98° East 181 208 7,000  Level Boston Center
Mon 03:12:04 PM 42.6994 -72.9061 108° East 181 208 7,000  Level Boston Center
Mon 03:13:03 PM 42.6872 -72.8411 104° East 181 208 7,000  Level Boston Center
Mon 03:14:03 PM 42.6772 -72.7761 102° East 181 208 7,000  Level Boston Center
Mon 03:15:04 PM 42.6647 -72.7139 105° East 181 208 7,000  Level Boston Center
Mon 03:16:02 PM 42.6525 -72.6517 105° East 181 208 7,000  Level Boston Center
Mon 03:17:02 PM 42.6419 -72.5842 102° East 176 203 7,000  Level Boston Center
Mon 03:18:03 PM 42.6297 -72.5192 104° East 176 203 7,000  Level Boston Center
Mon 03:19:03 PM 42.6192 -72.4542 102° East 176 203 7,000  Level Boston Center
Mon 03:20:03 PM 42.6067 -72.3892 105° East 176 203 7,000  Level Boston Center
Mon 03:21:04 PM 42.5942 -72.3272 105° East 176 203 7,000  Level Boston Center
Mon 03:22:04 PM 42.5817 -72.2539 103° East 182 209 7,000  Level Boston Center
Mon 03:23:02 PM 42.5711 -72.1947 104° East 184 212 7,000  Level Boston Center
Mon 03:24:03 PM 42.5564 -72.1244 106° East 178 205 7,000  Level Boston Center
Mon 03:25:03 PM 42.5478 -72.0653 101° East 173 199 7,000  Level Boston Center
Mon 03:26:04 PM 42.5392 -71.9950 99° East 173 199 7,000  Level Boston Center
Mon 03:27:04 PM 42.5347 -71.9358 96° East 173 199 7,000  Level Boston Center
Mon 03:28:03 PM 42.5261 -71.8625 99° East 179 206 7,000  Level Boston Center
Mon 03:29:03 PM 42.5217 -71.7978 95° East 185 213 7,000  Level Boston Center
Mon 03:30:04 PM 42.5147 -71.7189 97° East 185 213 7,000  Level Boston Center
Mon 03:31:02 PM 42.5081 -71.6572 98° East 185 213 7,000  Level Boston Center
Mon 03:32:03 PM 42.5014 -71.5811 97° East 185 213 7,000 -99 Level Boston Center
Mon 03:33:03 PM 42.4947 -71.5136 98° East 186 214 6,800 -496 Descending Boston Center
Mon 03:34:04 PM 42.4897 -71.4292 95° East 201 231 6,000 -645 Descending Boston Center
Mon 03:35:04 PM 42.4869 -71.3561 93° East 206 237 5,500 508 Descending Boston Center
Mon 03:36:02 PM 42.4881 -71.2689 89° East 206 237 7,000 -706 Climbing Boston Center
Mon 03:37:03 PM 42.4917 -71.2039 86° East 206 237 4,100 -1,820 Descending Boston Center
Mon 03:38:04 PM 42.4950 -71.1250 87° East 193 222 3,300 -706 Descending Boston Center
Mon 03:39:02 PM 42.4983 -71.0631 86° East 188 216 2,700 -745 Descending Boston Center
Mon 03:40:21 PM 42.4500 -70.9833 129° Southeast 171 197 1,600 -777 Descending KA90
Mon 03:41:21 PM 42.4167 -70.9833 180° South 141 162 900 -678 Descending KA90
Mon 03:42:16 PM 42.3833 -71.0000 200° South 131 151 300 -655 Descending KA90
Mon 03:44:00 PM 42.3630 -71.0064 204° Southwest  Level Estimated

Login

Don't have an account? Register now (free) for customized features, flight alerts, and more!